Terminal Aerodrome Forecast
Issued by NWS

Home | Current Version | Previous Version | Text Only | Print | Product List | Glossary On
Versions: 1 2 3 4 5 6 7 8 9 10 11 12 13 14 15 16
000
FTUS44 KMAF 212300
TAFINK
TAF
KINK 212335Z 2200/2224 12008KT P6SM SCT200
     FM220300 13007KT 5SM BR OVC006
     FM221200 07004KT 2SM BR OVC002 PROB30 2212/2215 5SM -TSRA
      OVC007CB
     FM221600 18005KT 5SM BR OVC010
     FM221900 29008KT P6SM SCT050=

USA.gov is the U.S. government's official web portal to all federal, state and local government web resources and services.